Balikesir afb, Turkey

12:15 AM +03 on January 18, 2017 (GMT +0300)
Balikesir Air Base | | Change Station

Elev 335 ft 39.62 °N, 27.92 °E | Updated 25 minutes ago

Fog
Fog
45 °F
Feels Like 45 °F
N
0
Wind Variable Wind from North

Today
High -- | Low -- °F
--% Chance of Precip.
Yesterday
High -- | Low -- °F
Precip. -- in
Pressure 30.04 in
Visibility 0.2 miles
Clouds Scattered Clouds 500 ft
Scattered Clouds 3500 ft
Mostly Cloudy 10000 ft
Dew Point 45 °F
Humidity 100%
Rainfall 0.00 in
Snow Depth Not available.
8:25 AM 6:11 PM
Waning Gibbous, 69% visible
METAR LTBF 172050Z 00000KT 0400 R36/0900D R18/0550D FG SCT005 SCT035 BKN100 07/07 Q1017 NOSIG
Pressure 30.04 in
Visibility 0.2 miles
Clouds Scattered Clouds 500 ft
Scattered Clouds 3500 ft
Mostly Cloudy 10000 ft
Dew Point 45 °F
Humidity 100%
Rainfall 0.00 in
Snow Depth Not available.
8:25 AM 6:11 PM
Waning Gibbous, 69% visible
METAR LTBF 172050Z 00000KT 0400 R36/0900D R18/0550D FG SCT005 SCT035 BKN100 07/07 Q1017 NOSIG

Get Your Daily Forecast Email!

Thanks for signing up!

Be on the lookout for a verification email in your inbox.

You'll start receiving the daily forecast at 8 AM.

×

10-Day Weather Forecast

×

Almanac

Astronomy

Jan. 18, 2017 Rise Set
Actual Time
Civil Twilight
Nautical Twilight
Astronomical Twilight
Moon
Length of Visible Light
Length of Day
Tomorrow will be .
, % of the Moon is Illuminated

Today's Extremes

Country Highs Country Lows

Community

WunderPhotos

Upload Photos

1,962,540 photos uploaded!

WunderBlog® & News

Nearby

Air Quality

  Air Quality AQ Index Pollutant
Not available.

Snow Depth

Station Depth Elevation

Earthquake Activity

City Distance Mag. Time & Date
Minimum magnitude displayed is 2.5.

Coastal Water Temperatures

Place Temperature

Stations

Nearby Weather Stations

Station Location Temp. Windchill Dew Point Humidity Wind Precip. Elev Updated Type